Time;durP1;ratioP1;P1;durP2;ratioP2;P2;SDS_P1;SDS_P2;PMS_P1;PMS_P2;Temp;Humidity;BMP_temperature;BMP_pressure;BME280_temperature;BME280_humidity;BME280_pressure;Samples;Min_cycle;Max_cycle;Signal;HPM_P1;HPM_P2
2023/07/29 00:01:22;;;;;;;4.00;0.98;;;;;;;18.77;64.58;99035.75;5011842;28;20513;-54
2023/07/29 00:03:49;;;;;;;2.72;0.88;;;;;;;18.70;64.69;99034.38;5012592;28;20053;-53
2023/07/29 00:06:15;;;;;;;1.45;0.47;;;;;;;18.68;64.55;99031.84;5009688;28;20050;-52
2023/07/29 00:08:42;;;;;;;2.30;0.82;;;;;;;18.66;64.38;99027.63;5012014;28;20050;-48
2023/07/29 00:11:09;;;;;;;2.35;0.85;;;;;;;18.62;64.69;99032.19;5007904;28;20042;-51
2023/07/29 00:13:35;;;;;;;1.55;1.10;;;;;;;18.60;64.15;99023.53;5005679;28;20038;-52
2023/07/29 00:16:02;;;;;;;1.33;0.63;;;;;;;18.56;64.73;99028.13;5011849;28;20058;-53
2023/07/29 00:18:29;;;;;;;2.70;1.10;;;;;;;18.54;64.83;99023.88;5015107;28;20077;-50
2023/07/29 00:20:55;;;;;;;1.55;0.70;;;;;;;18.52;65.23;99030.97;4996550;28;20704;-53
2023/07/29 00:23:22;;;;;;;1.42;0.88;;;;;;;18.47;64.23;99028.56;5009745;28;20058;-49
2023/07/29 00:25:50;;;;;;;4.13;1.77;;;;;;;18.43;64.82;99027.91;5007855;28;20450;-53
2023/07/29 00:28:19;;;;;;;3.08;0.95;;;;;;;18.41;64.94;99034.97;5009356;28;20056;-51
2023/07/29 00:30:49;;;;;;;1.23;0.43;;;;;;;18.40;64.98;99022.81;5007613;28;20049;-54
2023/07/29 00:33:16;;;;;;;2.72;1.02;;;;;;;18.36;65.01;99024.75;5013322;28;20065;-49
2023/07/29 00:35:43;;;;;;;2.15;1.25;;;;;;;18.35;64.77;99024.84;5008434;28;20498;-48
2023/07/29 00:38:09;;;;;;;2.20;0.50;;;;;;;18.33;64.73;99026.66;5013455;28;20049;-51
2023/07/29 00:40:36;;;;;;;1.88;0.50;;;;;;;18.31;65.05;99033.78;5016270;28;20064;-52
2023/07/29 00:43:03;;;;;;;2.97;0.80;;;;;;;18.28;64.93;99028.69;5012681;28;20456;-51
2023/07/29 00:45:32;;;;;;;2.50;1.00;;;;;;;18.28;65.44;99023.44;5011364;28;20042;-50
2023/07/29 00:48:00;;;;;;;2.50;1.15;;;;;;;18.26;65.02;99035.78;5014870;28;20488;-50
2023/07/29 00:50:28;;;;;;;2.20;0.47;;;;;;;18.23;65.29;99042.03;5011531;28;20042;-51
2023/07/29 00:52:56;;;;;;;2.45;0.80;;;;;;;18.20;65.01;99031.69;5010855;28;20049;-52
2023/07/29 00:55:24;;;;;;;1.35;0.70;;;;;;;18.17;65.47;99035.31;5012762;28;20826;-51
2023/07/29 00:57:54;;;;;;;1.55;0.90;;;;;;;18.16;65.58;99040.63;5007665;28;20042;-52
2023/07/29 01:00:22;;;;;;;4.00;0.68;;;;;;;18.11;65.66;99038.25;5012017;28;20111;-50
2023/07/29 01:02:50;;;;;;;4.90;1.23;;;;;;;18.09;65.67;99033.09;5007116;28;20612;-50
2023/07/29 01:05:21;;;;;;;3.45;0.90;;;;;;;18.07;65.63;99032.28;5003660;28;20037;-50
2023/07/29 01:13:47;;;;;;;2.58;1.05;;;;;;;17.98;65.60;99031.00;5058757;28;20911;-51
2023/07/29 01:16:23;;;;;;;6.60;1.90;;;;;;;18.04;65.85;99027.19;5055367;28;20057;-52
2023/07/29 01:18:54;;;;;;;2.88;1.65;;;;;;;18.05;65.39;99028.06;5055506;28;20743;-52
2023/07/29 01:21:21;;;;;;;4.20;2.35;;;;;;;18.05;65.92;99022.81;5061186;28;20044;-53
2023/07/29 01:23:53;;;;;;;4.10;2.17;;;;;;;18.05;65.81;99026.28;5044449;28;20051;-49
2023/07/29 01:26:19;;;;;;;1.95;1.02;;;;;;;18.04;65.40;99021.13;5060514;28;20416;-49
2023/07/29 01:28:46;;;;;;;4.13;2.85;;;;;;;18.04;66.29;99021.94;5060754;28;20049;-52
2023/07/29 01:31:26;;;;;;;2.83;1.05;;;;;;;18.02;66.01;99017.72;5060627;28;20585;-51
2023/07/29 01:33:59;;;;;;;3.88;2.28;;;;;;;18.04;65.66;99015.88;5059014;28;20049;-52
2023/07/29 01:36:29;;;;;;;3.55;1.75;;;;;;;18.02;65.94;99017.72;5061405;28;20049;-53
2023/07/29 01:38:57;;;;;;;3.45;1.92;;;;;;;17.98;65.51;99017.91;5058009;28;20060;-48
2023/07/29 01:41:24;;;;;;;2.10;1.83;;;;;;;17.95;65.72;99010.19;5061322;28;20053;-51
2023/07/29 01:43:52;;;;;;;5.18;2.15;;;;;;;17.94;66.12;99003.22;5060942;28;20053;-55
2023/07/29 01:46:20;;;;;;;3.60;0.95;;;;;;;17.93;66.36;98998.94;5060679;28;20607;-51
2023/07/29 01:48:46;;;;;;;6.15;1.70;;;;;;;17.91;66.41;99006.03;5060033;28;20401;-51
2023/07/29 01:51:13;;;;;;;2.45;1.80;;;;;;;17.86;65.89;98997.53;5058305;28;20056;-49
2023/07/29 01:53:40;;;;;;;4.25;2.28;;;;;;;17.84;66.03;99002.00;5056057;28;20514;-51
2023/07/29 01:56:06;;;;;;;3.42;2.15;;;;;;;17.81;65.99;99002.16;5056428;28;20104;-49
2023/07/29 01:58:33;;;;;;;5.10;2.50;;;;;;;17.80;66.09;98997.84;5060519;28;20041;-50
2023/07/29 02:01:00;;;;;;;3.55;2.53;;;;;;;17.79;66.73;99004.00;5057931;28;20048;-50
2023/07/29 02:03:26;;;;;;;7.40;2.60;;;;;;;17.77;66.61;99003.25;5056016;28;20123;-51
2023/07/29 02:05:53;;;;;;;3.40;2.38;;;;;;;17.76;66.20;98996.31;5058817;28;20578;-52
2023/07/29 02:08:20;;;;;;;6.72;2.25;;;;;;;17.76;66.56;99001.56;5057636;28;20055;-51
2023/07/29 02:10:48;;;;;;;2.40;2.15;;;;;;;17.75;66.32;99005.94;5050054;28;20056;-49
2023/07/29 02:13:15;;;;;;;5.07;0.70;;;;;;;17.72;66.74;99000.84;5058567;28;20621;-51
2023/07/29 02:15:42;;;;;;;3.15;2.33;;;;;;;17.72;66.37;99001.69;5057812;28;20565;-50
2023/07/29 02:18:08;;;;;;;4.75;2.20;;;;;;;17.70;66.84;99003.53;5054695;28;20059;-51
2023/07/29 02:20:35;;;;;;;4.15;2.22;;;;;;;17.69;66.69;98998.38;5058971;28;20136;-52
2023/07/29 02:23:02;;;;;;;3.95;2.50;;;;;;;17.66;66.60;98991.50;5051802;28;20084;-52
2023/07/29 02:25:28;;;;;;;5.18;2.47;;;;;;;17.64;65.95;98982.03;5046167;28;20049;-48
2023/07/29 02:27:55;;;;;;;4.03;2.53;;;;;;;17.62;66.18;98984.75;5042534;28;20052;-50
2023/07/29 02:30:22;;;;;;;5.18;2.13;;;;;;;17.61;67.00;98988.28;5039701;28;20041;-53
2023/07/29 02:32:48;;;;;;;6.30;2.72;;;;;;;17.58;67.09;98985.81;5043271;28;20049;-48
2023/07/29 02:35:15;;;;;;;4.30;2.35;;;;;;;17.56;66.06;98990.28;5043710;28;20052;-50
2023/07/29 02:37:42;;;;;;;6.60;2.47;;;;;;;17.53;66.70;98996.50;5046166;28;20136;-53
2023/07/29 02:40:09;;;;;;;5.15;2.28;;;;;;;17.50;67.33;98986.19;5041366;28;20676;-52
2023/07/29 02:42:36;;;;;;;4.40;2.28;;;;;;;17.49;66.49;98988.88;5042116;28;20107;-52
2023/07/29 02:45:03;;;;;;;3.67;2.45;;;;;;;17.47;66.54;98981.94;5046438;28;20046;-49
2023/07/29 02:47:29;;;;;;;5.45;1.60;;;;;;;17.46;67.25;98982.00;5042117;28;20175;-53
2023/07/29 02:49:56;;;;;;;3.15;2.17;;;;;;;17.45;67.55;98989.03;5047519;28;20040;-51
2023/07/29 02:52:23;;;;;;;4.93;2.78;;;;;;;17.43;67.25;98993.47;5047502;28;20079;-51
2023/07/29 02:54:49;;;;;;;4.80;2.45;;;;;;;17.41;67.05;98991.88;5043274;28;20045;-52
2023/07/29 02:57:17;;;;;;;3.95;2.47;;;;;;;17.39;67.37;98986.69;5043101;28;20045;-50
2023/07/29 02:59:44;;;;;;;4.97;2.17;;;;;;;17.38;66.74;98985.00;5045738;28;20053;-51
2023/07/29 03:02:11;;;;;;;6.65;2.65;;;;;;;17.39;67.37;98993.72;5046389;28;20033;-52
2023/07/29 03:04:37;;;;;;;3.65;2.20;;;;;;;17.37;67.13;98985.94;5042701;28;20053;-54
2023/07/29 03:07:04;;;;;;;3.28;2.97;;;;;;;17.35;67.49;98982.53;5044962;28;20053;-51
2023/07/29 03:09:31;;;;;;;4.45;2.90;;;;;;;17.32;67.06;98978.31;5046837;28;20056;-50
2023/07/29 03:11:58;;;;;;;8.18;2.45;;;;;;;17.31;68.29;98986.22;5046222;28;20037;-53
2023/07/29 03:14:25;;;;;;;6.03;3.35;;;;;;;17.29;67.56;98988.09;5044135;28;20041;-50
2023/07/29 03:16:52;;;;;;;3.65;2.75;;;;;;;17.27;68.40;98976.81;5046039;28;20080;-53
2023/07/29 03:19:19;;;;;;;4.60;2.65;;;;;;;17.25;68.01;98982.13;5044780;28;20143;-50
2023/07/29 03:21:45;;;;;;;3.97;2.80;;;;;;;17.25;68.02;98982.13;5047840;28;20041;-49
2023/07/29 03:24:12;;;;;;;5.10;3.17;;;;;;;17.25;67.59;98981.31;5046732;28;20051;-53
2023/07/29 03:26:39;;;;;;;3.92;2.85;;;;;;;17.24;67.32;98984.81;5046283;28;20052;-51
2023/07/29 03:29:07;;;;;;;3.10;2.53;;;;;;;17.23;67.63;98989.22;5044863;28;20064;-49
2023/07/29 03:31:34;;;;;;;3.63;3.17;;;;;;;17.20;67.87;98979.72;5045641;28;20671;-52
2023/07/29 03:34:00;;;;;;;4.20;2.40;;;;;;;17.19;68.17;98987.69;5045191;28;20061;-52
2023/07/29 03:36:27;;;;;;;4.70;3.10;;;;;;;17.17;68.65;98989.50;5045143;28;20044;-50
2023/07/29 03:38:54;;;;;;;3.72;2.80;;;;;;;17.14;67.97;98993.13;5045361;28;20057;-50
2023/07/29 03:41:20;;;;;;;4.68;2.53;;;;;;;17.12;68.01;98978.41;5045727;28;20053;-50
2023/07/29 03:43:47;;;;;;;4.53;2.47;;;;;;;17.09;67.79;98976.75;5043744;28;20053;-49
2023/07/29 03:46:17;;;;;;;8.35;2.72;;;;;;;17.07;67.82;98981.25;5042740;28;20060;-53
2023/07/29 03:48:44;;;;;;;7.53;3.05;;;;;;;17.07;68.02;98994.31;5044170;28;20076;-55
2023/07/29 03:51:11;;;;;;;5.70;3.33;;;;;;;17.03;68.10;98987.50;5043981;28;20041;-52
2023/07/29 03:53:37;;;;;;;3.92;2.90;;;;;;;17.02;68.63;98983.19;5045605;28;20063;-52
2023/07/29 03:56:04;;;;;;;5.28;2.40;;;;;;;17.01;68.76;98978.88;5043394;28;20045;-49
2023/07/29 03:58:31;;;;;;;3.88;2.53;;;;;;;16.99;68.74;98980.72;5040110;28;20048;-52
2023/07/29 04:00:58;;;;;;;6.47;2.70;;;;;;;16.98;69.00;98979.03;5044724;28;20484;-51
2023/07/29 04:03:24;;;;;;;5.13;3.13;;;;;;;16.96;68.88;98977.31;5046636;28;20041;-53
2023/07/29 04:05:51;;;;;;;5.63;3.25;;;;;;;16.95;68.95;98980.84;5043967;28;20055;-52
2023/07/29 04:08:18;;;;;;;4.03;2.70;;;;;;;16.92;68.70;98975.75;5045021;28;20575;-53
2023/07/29 04:10:46;;;;;;;4.88;2.72;;;;;;;16.90;68.65;98977.63;5041310;28;20496;-55
2023/07/29 04:13:12;;;;;;;4.47;0.93;;;;;;;16.88;68.67;98978.63;5038812;28;20416;-49
2023/07/29 04:15:39;;;;;;;5.70;2.78;;;;;;;16.85;69.30;98976.97;5044100;28;20053;-52
2023/07/29 04:18:06;;;;;;;8.60;2.85;;;;;;;16.83;69.07;98976.19;5044879;28;20048;-55
2023/07/29 04:20:33;;;;;;;3.70;2.47;;;;;;;16.82;69.35;98977.13;5043513;28;20558;-52
2023/07/29 04:23:00;;;;;;;2.45;2.15;;;;;;;16.80;68.26;98978.94;5039170;28;20071;-49
2023/07/29 04:25:27;;;;;;;4.78;2.40;;;;;;;16.78;69.13;98973.78;5044186;28;20056;-50
2023/07/29 04:27:55;;;;;;;6.22;3.13;;;;;;;16.77;69.48;98973.84;5044654;28;20049;-50
2023/07/29 04:30:21;;;;;;;5.97;2.80;;;;;;;16.77;69.05;98979.09;5045707;28;20049;-53
2023/07/29 04:32:48;;;;;;;3.97;2.38;;;;;;;16.74;69.40;98971.38;5041329;28;20122;-52
2023/07/29 04:35:15;;;;;;;5.82;2.60;;;;;;;16.73;69.45;98964.47;5045026;28;20118;-52
2023/07/29 04:37:42;;;;;;;3.78;2.47;;;;;;;16.72;69.14;98970.63;5042242;28;20063;-50
2023/07/29 04:40:08;;;;;;;3.67;2.88;;;;;;;16.70;69.11;98971.53;5044681;28;20040;-48
2023/07/29 04:42:36;;;;;;;5.63;2.53;;;;;;;16.69;69.63;98972.44;5042246;28;20687;-48
2023/07/29 04:45:03;;;;;;;5.22;2.40;;;;;;;16.69;69.67;98975.06;5044779;28;20068;-50
2023/07/29 04:47:30;;;;;;;5.88;2.17;;;;;;;16.71;69.34;98972.38;5043937;28;20049;-51
2023/07/29 04:49:56;;;;;;;2.72;2.28;;;;;;;16.72;69.07;98970.63;5043470;28;20073;-51
2023/07/29 04:52:23;;;;;;;7.18;2.38;;;;;;;16.72;69.76;98970.63;5043154;28;20048;-50
2023/07/29 04:54:50;;;;;;;4.97;2.65;;;;;;;16.73;69.41;98964.47;5040776;28;20476;-50
2023/07/29 04:57:17;;;;;;;4.72;2.50;;;;;;;16.73;69.45;98972.31;5042630;28;20136;-49
2023/07/29 04:59:44;;;;;;;5.15;2.25;;;;;;;16.74;69.05;98968.75;5042408;28;20037;-49
2023/07/29 05:02:11;;;;;;;6.60;2.45;;;;;;;16.73;69.90;98974.91;5037315;28;20179;-48
2023/07/29 05:04:37;;;;;;;4.32;2.47;;;;;;;16.73;69.83;98977.53;5041451;28;20497;-53
2023/07/29 05:07:04;;;;;;;4.00;2.55;;;;;;;16.74;69.66;98979.22;5041825;28;20056;-49
2023/07/29 05:09:31;;;;;;;2.90;2.42;;;;;;;16.73;70.00;98980.16;5043010;28;20130;-50
2023/07/29 05:11:58;;;;;;;5.07;2.75;;;;;;;16.72;69.74;98978.47;5039167;28;20424;-51
2023/07/29 05:14:24;;;;;;;3.13;2.33;;;;;;;16.72;69.98;98973.22;5041586;28;20049;-50
2023/07/29 05:16:51;;;;;;;3.75;2.38;;;;;;;16.72;69.81;98978.47;5042547;28;20056;-50
2023/07/29 05:19:18;;;;;;;4.07;2.55;;;;;;;16.72;69.28;98979.28;5043472;28;20077;-51
2023/07/29 05:21:44;;;;;;;4.78;2.17;;;;;;;16.75;69.30;98978.31;5041233;28;20045;-54
2023/07/29 05:24:11;;;;;;;5.78;3.05;;;;;;;16.77;69.17;98981.69;5042089;28;20045;-52
2023/07/29 05:26:38;;;;;;;5.00;2.15;;;;;;;16.79;69.25;98982.50;5039499;28;20061;-50
2023/07/29 05:29:05;;;;;;;3.30;2.25;;;;;;;16.86;69.80;98986.53;5040338;28;20053;-50
2023/07/29 05:31:31;;;;;;;5.35;2.60;;;;;;;16.90;69.77;98985.47;5039418;28;20056;-48
2023/07/29 05:33:59;;;;;;;8.98;2.38;;;;;;;16.96;69.74;98986.94;5042331;28;20373;-49
2023/07/29 05:36:25;;;;;;;6.78;2.88;;;;;;;17.02;69.79;98993.66;5043555;28;20041;-51
2023/07/29 05:38:52;;;;;;;5.70;2.75;;;;;;;17.04;69.29;98992.66;5041053;28;20049;-50
2023/07/29 05:41:19;;;;;;;4.00;2.13;;;;;;;17.05;69.60;98997.00;5038847;28;20057;-49
2023/07/29 05:43:46;;;;;;;9.00;2.53;;;;;;;17.05;69.30;98998.72;5042521;28;20103;-49
2023/07/29 05:46:13;;;;;;;3.15;2.47;;;;;;;17.03;69.36;98998.81;5042267;28;20055;-52
2023/07/29 05:48:40;;;;;;;4.60;2.72;;;;;;;17.01;69.45;98994.56;5040990;28;20073;-52
2023/07/29 05:51:06;;;;;;;9.18;2.35;;;;;;;17.00;69.16;99000.72;5040476;28;20056;-49
2023/07/29 05:53:33;;;;;;;4.55;2.95;;;;;;;17.00;68.96;98996.34;5039639;28;20037;-50
2023/07/29 05:56:00;;;;;;;7.65;3.10;;;;;;;17.01;69.08;98999.78;5039915;28;20052;-50
2023/07/29 05:58:26;;;;;;;5.07;2.55;;;;;;;17.02;69.70;98993.66;5043888;28;20096;-51
2023/07/29 06:00:53;;;;;;;5.63;2.67;;;;;;;17.00;69.12;99003.34;5044855;28;20500;-49
2023/07/29 06:03:19;;;;;;;6.57;3.05;;;;;;;17.02;69.66;99001.50;5043319;28;20135;-50
2023/07/29 06:05:46;;;;;;;5.55;2.35;;;;;;;17.01;69.18;99005.88;5038603;28;20052;-48
2023/07/29 06:08:13;;;;;;;4.05;2.53;;;;;;;17.01;69.20;98997.19;5046251;28;20045;-50
2023/07/29 06:10:40;;;;;;;3.20;2.45;;;;;;;16.99;69.22;99006.88;5047523;28;20080;-48
2023/07/29 06:13:06;;;;;;;3.15;2.78;;;;;;;16.96;70.07;98998.25;5045676;28;20044;-51
2023/07/29 06:15:33;;;;;;;3.72;1.48;;;;;;;16.95;69.38;98996.56;5048540;28;20460;-52
2023/07/29 06:18:00;;;;;;;2.83;2.35;;;;;;;16.98;69.59;98997.34;5039197;28;20068;-49
2023/07/29 06:20:26;;;;;;;8.43;2.65;;;;;;;17.02;70.36;98996.28;5042891;28;20043;-49
2023/07/29 06:22:53;;;;;;;4.97;2.42;;;;;;;17.04;69.65;98997.03;5047874;28;20040;-52
2023/07/29 06:25:20;;;;;;;3.55;2.00;;;;;;;17.03;69.57;99004.06;5047122;28;20053;-49
2023/07/29 06:27:46;;;;;;;3.20;2.45;;;;;;;17.06;69.76;99005.72;5043591;28;20077;-49
2023/07/29 06:30:13;;;;;;;3.10;2.17;;;;;;;17.15;70.36;98997.41;5047227;28;20041;-49
2023/07/29 06:32:40;;;;;;;7.75;2.50;;;;;;;17.31;70.57;98996.69;5043439;28;20053;-48
2023/07/29 06:35:07;;;;;;;4.10;2.55;;;;;;;17.43;70.64;99000.50;5045388;28;20076;-47
2023/07/29 06:37:34;;;;;;;5.80;2.75;;;;;;;17.65;70.69;99005.53;5041283;28;20075;-50
2023/07/29 06:40:01;;;;;;;4.40;2.25;;;;;;;17.93;70.65;99004.16;5047325;28;20045;-53
2023/07/29 06:42:28;;;;;;;7.15;3.10;;;;;;;18.21;71.12;99023.75;5044879;28;20041;-52
2023/07/29 06:44:55;;;;;;;3.00;2.70;;;;;;;18.39;70.24;99013.25;5039134;28;20045;-50
2023/07/29 06:47:21;;;;;;;6.18;2.60;;;;;;;18.55;69.67;99015.06;5042372;28;20051;-49
2023/07/29 06:49:48;;;;;;;9.77;2.83;;;;;;;18.74;69.69;99013.16;5047417;28;20045;-48
2023/07/29 06:52:15;;;;;;;5.15;2.47;;;;;;;18.89;69.12;99015.91;5042568;28;20055;-50
2023/07/29 06:54:41;;;;;;;4.72;2.30;;;;;;;19.00;68.78;99018.81;5039092;28;20045;-51
2023/07/29 06:57:08;;;;;;;3.90;2.30;;;;;;;19.05;68.41;99012.44;5041404;28;20056;-50
2023/07/29 06:59:35;;;;;;;6.32;2.88;;;;;;;19.07;68.33;99014.09;5041053;28;20053;-54
2023/07/29 07:02:01;;;;;;;5.97;2.92;;;;;;;19.09;67.67;99019.25;5044238;28;20048;-53
2023/07/29 07:04:28;;;;;;;4.10;3.30;;;;;;;19.02;67.31;99014.31;5046543;28;20049;-53
2023/07/29 07:06:56;;;;;;;5.45;2.88;;;;;;;18.96;67.74;99019.91;5041951;28;20052;-52
2023/07/29 07:09:23;;;;;;;4.88;3.45;;;;;;;18.95;67.50;99012.09;5044887;28;20067;-53
2023/07/29 07:11:50;;;;;;;6.53;3.22;;;;;;;19.02;67.93;99005.59;5044532;28;20051;-48
2023/07/29 07:14:16;;;;;;;5.35;2.83;;;;;;;19.26;67.10;99010.44;5043828;28;20578;-48
2023/07/29 07:16:43;;;;;;;3.13;2.25;;;;;;;19.42;66.76;99014.84;5039845;28;20505;-50
2023/07/29 07:19:10;;;;;;;5.85;3.25;;;;;;;19.48;66.52;99009.22;5045338;28;20055;-52
2023/07/29 07:21:37;;;;;;;4.38;2.00;;;;;;;19.62;66.67;99021.59;5044138;28;20049;-53
2023/07/29 07:24:04;;;;;;;4.90;1.83;;;;;;;19.76;66.24;99013.75;5043371;28;20390;-53
2023/07/29 07:26:31;;;;;;;5.57;2.90;;;;;;;19.83;65.91;99010.78;5044449;28;20052;-53
2023/07/29 07:28:57;;;;;;;3.60;2.10;;;;;;;19.81;65.56;98999.50;5043223;28;20815;-51
2023/07/29 07:31:25;;;;;;;3.65;2.30;;;;;;;19.89;65.93;99007.78;5042192;28;20044;-55
2023/07/29 07:33:51;;;;;;;7.85;2.53;;;;;;;20.14;65.70;99003.75;5045271;28;20041;-53
2023/07/29 07:36:18;;;;;;;6.03;2.47;;;;;;;20.38;64.93;99005.84;5041890;28;20060;-50
2023/07/29 07:38:45;;;;;;;5.72;2.88;;;;;;;20.68;64.48;99010.19;5045873;28;20554;-53
2023/07/29 07:41:11;;;;;;;3.83;2.75;;;;;;;21.08;65.26;99006.03;5037623;28;20060;-51
2023/07/29 07:43:38;;;;;;;3.40;2.50;;;;;;;21.43;63.46;99010.81;5037486;28;20124;-48
2023/07/29 07:46:05;;;;;;;3.58;2.92;;;;;;;21.70;63.02;99008.19;5045250;28;20092;-52
2023/07/29 07:48:33;;;;;;;5.82;2.60;;;;;;;21.99;63.20;99007.22;5044331;28;20069;-50
2023/07/29 07:50:59;;;;;;;4.18;2.97;;;;;;;22.32;61.82;99003.22;5043093;28;20081;-52
2023/07/29 07:53:26;;;;;;;3.38;2.17;;;;;;;22.56;61.58;98999.03;5046736;28;20045;-48
2023/07/29 07:55:53;;;;;;;3.45;2.63;;;;;;;22.87;60.33;99007.41;5042775;28;20548;-52
2023/07/29 07:58:20;;;;;;;4.53;3.28;;;;;;;23.06;59.50;99012.22;5042240;28;20055;-50
2023/07/29 08:00:46;;;;;;;3.60;2.25;;;;;;;23.13;59.27;99011.78;5038892;28;20048;-50
2023/07/29 08:03:13;;;;;;;5.00;2.10;;;;;;;23.28;58.85;99009.81;5033600;28;20053;-50
2023/07/29 08:05:40;;;;;;;4.40;3.20;;;;;;;23.25;57.85;99016.19;5038027;28;20060;-52
2023/07/29 08:08:06;;;;;;;4.22;2.60;;;;;;;23.15;58.25;99015.16;5034566;28;20059;-51
2023/07/29 08:10:34;;;;;;;5.60;3.10;;;;;;;23.14;57.55;99018.75;5035554;28;20497;-52
2023/07/29 08:13:00;;;;;;;4.38;0.95;;;;;;;23.06;57.43;99014.88;5032872;28;20437;-55
2023/07/29 08:15:27;;;;;;;4.93;2.75;;;;;;;23.06;57.42;99011.38;5036545;28;20492;-50
2023/07/29 08:17:54;;;;;;;2.85;2.33;;;;;;;22.92;57.09;99017.63;5039163;28;20057;-50
2023/07/29 08:20:20;;;;;;;4.63;3.25;;;;;;;22.93;57.18;99014.06;5036435;28;20045;-54
2023/07/29 08:22:47;;;;;;;4.40;2.58;;;;;;;23.14;56.93;99010.81;5036728;28;20382;-52
2023/07/29 08:25:14;;;;;;;3.47;2.60;;;;;;;23.46;56.48;99005.03;5034262;28;20059;-52
2023/07/29 08:27:41;;;;;;;4.25;2.75;;;;;;;23.80;56.51;99005.16;5036973;28;20053;-54
2023/07/29 08:30:08;;;;;;;3.65;2.35;;;;;;;24.20;56.44;98995.19;5035930;28;20179;-50
2023/07/29 08:32:36;;;;;;;2.75;2.28;;;;;;;24.57;55.94;98996.78;5034972;28;20072;-56
2023/07/29 08:35:03;;;;;;;2.65;2.13;;;;;;;24.76;54.66;98998.81;5036268;28;20057;-55
2023/07/29 08:37:31;;;;;;;3.50;2.10;;;;;;;24.68;54.71;98999.41;5034847;28;20052;-53
2023/07/29 08:39:58;;;;;;;4.35;2.55;;;;;;;24.52;54.13;98995.34;5033781;28;20049;-54
2023/07/29 08:42:31;;;;;;;3.30;2.25;;;;;;;24.32;53.82;99004.81;5035995;28;20081;-54
2023/07/29 08:45:07;;;;;;;3.75;2.28;;;;;;;24.15;54.06;99000.00;5033405;28;20076;-55
2023/07/29 08:47:34;;;;;;;3.45;2.53;;;;;;;23.99;54.02;99003.78;5030101;28;20109;-55
2023/07/29 08:50:03;;;;;;;4.45;3.03;;;;;;;23.87;54.26;99001.09;5035117;28;20041;-54
2023/07/29 08:52:32;;;;;;;5.57;2.47;;;;;;;23.75;54.12;99004.66;5030535;28;20053;-52
2023/07/29 08:54:58;;;;;;;2.95;1.73;;;;;;;23.67;54.19;99004.41;5031951;28;20045;-54
2023/07/29 08:57:27;;;;;;;6.10;2.33;;;;;;;23.54;53.88;99002.66;5038719;28;20060;-54
2023/07/29 08:59:55;;;;;;;3.03;2.60;;;;;;;23.38;53.72;99005.59;5035179;28;20045;-53
2023/07/29 09:02:22;;;;;;;3.15;1.75;;;;;;;23.27;54.04;99014.25;5030200;28;20056;-55
2023/07/29 09:04:52;;;;;;;2.50;2.15;;;;;;;23.14;54.04;99005.53;5034783;28;20684;-51
2023/07/29 09:07:20;;;;;;;2.50;2.22;;;;;;;23.02;53.46;99005.47;5033557;28;20144;-53
2023/07/29 09:09:48;;;;;;;2.63;1.52;;;;;;;22.93;53.74;99000.88;5035299;28;20593;-55
2023/07/29 09:12:15;;;;;;;3.75;2.17;;;;;;;22.81;54.38;99008.69;5033883;28;20059;-54
2023/07/29 09:14:44;;;;;;;2.95;2.30;;;;;;;22.78;54.50;99003.63;5032325;28;20052;-53
2023/07/29 09:17:12;;;;;;;6.38;2.35;;;;;;;22.84;54.78;99013.75;5032448;28;20140;-53
2023/07/29 09:19:39;;;;;;;2.38;1.88;;;;;;;23.22;55.10;99001.41;5031211;28;20130;-56
2023/07/29 09:22:17;;;;;;;7.25;2.20;;;;;;;23.60;55.11;99004.00;5033204;28;20049;-53
2023/07/29 09:24:45;;;;;;;4.35;2.05;;;;;;;23.86;53.78;99009.16;5032843;28;20131;-53
2023/07/29 09:27:31;;;;;;;7.03;2.30;;;;;;;23.96;53.96;99004.84;5030281;28;20045;-51
2023/07/29 09:29:58;;;;;;;6.18;1.27;;;;;;;24.03;53.27;99004.38;5034476;28;20609;-54
2023/07/29 09:32:25;;;;;;;2.53;1.55;;;;;;;23.94;52.38;99003.28;5030594;28;20045;-55
2023/07/29 09:34:52;;;;;;;2.30;2.03;;;;;;;23.85;52.70;99008.28;5036141;28;20064;-50
2023/07/29 09:37:21;;;;;;;3.97;2.20;;;;;;;23.84;52.77;99013.72;5038845;28;20139;-54
2023/07/29 09:39:49;;;;;;;4.78;1.90;;;;;;;23.86;52.92;99010.00;5039762;28;20147;-51
2023/07/29 09:42:21;;;;;;;3.80;1.98;;;;;;;23.89;52.94;99008.91;5040117;28;20044;-53
2023/07/29 09:44:50;;;;;;;3.35;2.13;;;;;;;23.85;52.58;99018.03;5043357;28;20052;-55
2023/07/29 09:47:20;;;;;;;2.42;2.05;;;;;;;23.76;52.31;99019.56;5038748;28;20056;-51
2023/07/29 09:49:47;;;;;;;3.67;0.80;;;;;;;23.88;53.57;99013.34;5040527;28;20451;-51
2023/07/29 09:52:16;;;;;;;3.42;2.00;;;;;;;24.13;53.18;99006.25;5037921;28;20049;-53
2023/07/29 09:54:44;;;;;;;3.83;2.15;;;;;;;24.42;53.04;99015.56;5038330;28;20048;-53
2023/07/29 09:57:13;;;;;;;4.20;2.63;;;;;;;24.69;52.49;99014.34;5036984;28;20057;-55
2023/07/29 09:59:40;;;;;;;2.17;1.98;;;;;;;24.95;52.23;99011.47;5042501;28;20059;-55
2023/07/29 10:02:13;;;;;;;4.50;2.40;;;;;;;25.20;51.85;99013.94;5043330;28;20512;-57
2023/07/29 10:04:42;;;;;;;3.03;2.33;;;;;;;25.29;50.44;99014.03;5040645;28;20128;-54
2023/07/29 10:07:11;;;;;;;5.90;2.40;;;;;;;25.34;51.15;99020.78;5037085;28;20060;-55
2023/07/29 10:09:39;;;;;;;3.35;2.58;;;;;;;25.28;50.34;99022.13;5042018;28;20519;-54
2023/07/29 10:12:06;;;;;;;2.53;2.30;;;;;;;25.20;50.68;99024.56;5037647;28;20053;-54
2023/07/29 10:14:33;;;;;;;4.20;2.15;;;;;;;25.22;50.81;99027.91;5043316;28;20500;-55
2023/07/29 10:17:01;;;;;;;3.92;1.92;;;;;;;25.26;50.09;99029.38;5040921;28;20052;-48
2023/07/29 10:19:28;;;;;;;4.00;2.47;;;;;;;25.11;50.28;99029.63;5038446;28;20049;-55
2023/07/29 10:21:58;;;;;;;4.85;2.67;;;;;;;24.96;50.26;99039.63;5040352;28;20075;-57
2023/07/29 10:24:31;;;;;;;4.25;2.45;;;;;;;24.77;49.69;99034.91;5041462;28;20847;-53
2023/07/29 10:27:00;;;;;;;6.18;2.33;;;;;;;24.61;50.32;99036.13;5041115;28;20044;-52
2023/07/29 10:29:32;;;;;;;4.18;2.25;;;;;;;24.44;50.79;99031.28;5043171;28;20543;-53
2023/07/29 10:32:03;;;;;;;2.78;1.23;;;;;;;24.32;50.70;99025.97;5042955;28;20430;-53
2023/07/29 10:34:31;;;;;;;5.68;2.53;;;;;;;24.21;51.41;99018.88;5044332;28;20056;-55
2023/07/29 10:36:59;;;;;;;3.75;1.98;;;;;;;24.22;51.84;99030.31;5041825;28;20055;-50
2023/07/29 10:39:26;;;;;;;3.53;2.33;;;;;;;24.36;52.08;99035.41;5039067;28;20060;-53
2023/07/29 10:41:56;;;;;;;3.15;2.40;;;;;;;24.50;52.02;99036.13;5038063;28;20053;-52
2023/07/29 10:50:00;;;;;;;1.65;0.85;;;;;;;24.64;51.86;99043.84;5094750;27;20396;-53
2023/07/29 11:00:49;;;;;;;3.72;2.50;;;;;;;25.40;51.34;99037.00;5055302;27;20465;-50
2023/07/29 11:03:18;;;;;;;3.78;2.30;;;;;;;25.43;49.97;99041.22;5054611;28;20098;-53
2023/07/29 11:05:47;;;;;;;;;;;;;;;25.44;51.22;99031.47;5049300;28;20051;-49
2023/07/29 11:08:33;;;;;;;5.35;2.10;;;;;;;25.67;51.24;99038.41;5053246;28;19928;-54
2023/07/29 11:11:04;;;;;;;2.35;1.45;;;;;;;25.87;50.49;99033.25;5052562;28;20103;-51
2023/07/29 11:13:35;;;;;;;4.28;1.40;;;;;;;26.02;49.88;99040.91;5043142;28;20418;-55
2023/07/29 11:16:05;;;;;;;2.13;0.95;;;;;;;26.09;49.09;99042.06;5053275;28;22225;-50
2023/07/29 11:18:41;;;;;;;2.25;1.52;;;;;;;26.03;48.70;99047.88;5052765;28;20049;-53
2023/07/29 11:21:14;;;;;;;3.60;2.05;;;;;;;25.83;48.00;99039.78;5054060;28;20052;-51
2023/07/29 11:23:44;;;;;;;4.50;2.08;;;;;;;25.73;47.84;99036.22;5052712;28;20057;-53
2023/07/29 11:26:12;;;;;;;5.95;1.75;;;;;;;25.79;48.72;99031.25;5057189;28;20099;-53
2023/07/29 11:28:41;;;;;;;2.30;1.92;;;;;;;25.94;47.90;99038.91;5053665;28;20053;-48
2023/07/29 11:31:08;;;;;;;2.75;1.38;;;;;;;25.99;47.86;99041.16;5060859;28;20053;-50
2023/07/29 11:33:35;;;;;;;5.15;2.03;;;;;;;25.95;46.55;99040.59;5060785;28;20059;-50
2023/07/29 11:36:03;;;;;;;2.42;1.67;;;;;;;25.87;46.58;99043.03;5056478;28;20393;-53
2023/07/29 11:38:37;;;;;;;3.33;1.67;;;;;;;25.73;46.69;99047.66;5052572;28;20048;-52
2023/07/29 11:41:09;;;;;;;3.58;1.52;;;;;;;25.58;46.04;99044.47;5057960;28;20048;-53
2023/07/29 11:43:36;;;;;;;4.35;1.65;;;;;;;25.47;46.00;99047.13;5056505;28;20060;-51
2023/07/29 11:46:03;;;;;;;3.42;2.03;;;;;;;25.35;45.64;99048.97;5058656;28;20519;-53
2023/07/29 11:48:32;;;;;;;2.50;1.48;;;;;;;25.20;45.83;99061.66;5058213;28;20063;-51
2023/07/29 11:51:04;;;;;;;3.25;1.67;;;;;;;25.09;45.96;99055.38;5052674;28;20080;-51
2023/07/29 11:53:32;;;;;;;2.13;1.65;;;;;;;25.03;45.68;99058.53;5058956;28;20169;-51
2023/07/29 11:55:58;;;;;;;2.97;1.25;;;;;;;25.00;45.94;99058.78;5055263;28;20568;-54